sensor_id;sensor_type;location;lat;lon;timestamp;P1;durP1;ratioP1;P2;durP2;ratioP2
74620;SDS011;64861;47.546;19.254;2024-01-15T00:00:17;119.82;;;55.45;;
74620;SDS011;64861;47.546;19.254;2024-01-15T00:02:43;109.47;;;51.45;;
74620;SDS011;64861;47.546;19.254;2024-01-15T00:05:08;128.27;;;58.00;;
74620;SDS011;64861;47.546;19.254;2024-01-15T00:07:35;180.10;;;79.28;;
74620;SDS011;64861;47.546;19.254;2024-01-15T00:10:02;150.38;;;62.65;;
74620;SDS011;64861;47.546;19.254;2024-01-15T00:12:28;144.10;;;61.25;;
74620;SDS011;64861;47.546;19.254;2024-01-15T00:14:53;127.95;;;53.03;;
74620;SDS011;64861;47.546;19.254;2024-01-15T00:17:20;134.18;;;54.40;;
74620;SDS011;64861;47.546;19.254;2024-01-15T00:19:46;143.15;;;60.25;;
74620;SDS011;64861;47.546;19.254;2024-01-15T00:22:20;155.98;;;67.82;;
74620;SDS011;64861;47.546;19.254;2024-01-15T00:24:46;139.15;;;57.85;;
74620;SDS011;64861;47.546;19.254;2024-01-15T00:27:12;117.78;;;52.95;;
74620;SDS011;64861;47.546;19.254;2024-01-15T00:29:37;111.70;;;50.60;;
74620;SDS011;64861;47.546;19.254;2024-01-15T00:32:04;112.07;;;49.28;;
74620;SDS011;64861;47.546;19.254;2024-01-15T00:34:31;100.63;;;48.53;;
74620;SDS011;64861;47.546;19.254;2024-01-15T00:36:57;103.22;;;48.97;;
74620;SDS011;64861;47.546;19.254;2024-01-15T00:39:23;112.70;;;49.80;;
74620;SDS011;64861;47.546;19.254;2024-01-15T00:41:49;109.95;;;49.97;;
74620;SDS011;64861;47.546;19.254;2024-01-15T00:44:14;101.57;;;45.63;;
74620;SDS011;64861;47.546;19.254;2024-01-15T00:46:44;103.88;;;47.00;;
74620;SDS011;64861;47.546;19.254;2024-01-15T00:49:14;105.63;;;47.15;;
74620;SDS011;64861;47.546;19.254;2024-01-15T00:51:40;109.93;;;49.30;;
74620;SDS011;64861;47.546;19.254;2024-01-15T00:54:05;101.88;;;46.70;;
74620;SDS011;64861;47.546;19.254;2024-01-15T00:56:31;103.13;;;47.67;;
74620;SDS011;64861;47.546;19.254;2024-01-15T00:59:00;103.75;;;46.78;;
74620;SDS011;64861;47.546;19.254;2024-01-15T01:01:26;101.13;;;45.50;;
74620;SDS011;64861;47.546;19.254;2024-01-15T01:03:52;95.65;;;45.63;;
74620;SDS011;64861;47.546;19.254;2024-01-15T01:06:18;106.32;;;48.60;;
74620;SDS011;64861;47.546;19.254;2024-01-15T01:08:45;106.38;;;48.50;;
74620;SDS011;64861;47.546;19.254;2024-01-15T01:11:13;99.53;;;45.83;;
74620;SDS011;64861;47.546;19.254;2024-01-15T01:13:39;100.65;;;47.40;;
74620;SDS011;64861;47.546;19.254;2024-01-15T01:16:04;106.72;;;48.47;;
74620;SDS011;64861;47.546;19.254;2024-01-15T01:18:30;106.80;;;47.05;;
74620;SDS011;64861;47.546;19.254;2024-01-15T01:20:55;114.40;;;53.47;;
74620;SDS011;64861;47.546;19.254;2024-01-15T01:23:21;100.00;;;46.92;;
74620;SDS011;64861;47.546;19.254;2024-01-15T01:25:46;104.97;;;46.97;;
74620;SDS011;64861;47.546;19.254;2024-01-15T01:28:11;96.07;;;47.22;;
74620;SDS011;64861;47.546;19.254;2024-01-15T01:30:37;102.30;;;45.63;;
74620;SDS011;64861;47.546;19.254;2024-01-15T01:33:02;99.13;;;46.55;;
74620;SDS011;64861;47.546;19.254;2024-01-15T01:35:28;88.97;;;44.22;;
74620;SDS011;64861;47.546;19.254;2024-01-15T01:37:53;89.30;;;45.30;;
74620;SDS011;64861;47.546;19.254;2024-01-15T01:40:20;94.57;;;45.38;;
74620;SDS011;64861;47.546;19.254;2024-01-15T01:42:47;95.00;;;45.90;;
74620;SDS011;64861;47.546;19.254;2024-01-15T01:45:16;100.38;;;47.08;;
74620;SDS011;64861;47.546;19.254;2024-01-15T01:47:41;101.65;;;50.15;;
74620;SDS011;64861;47.546;19.254;2024-01-15T01:50:07;100.40;;;47.25;;
74620;SDS011;64861;47.546;19.254;2024-01-15T01:52:34;98.35;;;48.10;;
74620;SDS011;64861;47.546;19.254;2024-01-15T01:55:01;89.45;;;47.30;;
74620;SDS011;64861;47.546;19.254;2024-01-15T01:57:28;95.15;;;48.38;;
74620;SDS011;64861;47.546;19.254;2024-01-15T01:59:54;91.05;;;45.33;;
74620;SDS011;64861;47.546;19.254;2024-01-15T02:02:22;93.20;;;46.58;;
74620;SDS011;64861;47.546;19.254;2024-01-15T02:04:48;92.38;;;45.47;;
74620;SDS011;64861;47.546;19.254;2024-01-15T02:07:14;89.75;;;45.20;;
74620;SDS011;64861;47.546;19.254;2024-01-15T02:09:42;94.35;;;47.30;;
74620;SDS011;64861;47.546;19.254;2024-01-15T02:12:09;91.07;;;46.67;;
74620;SDS011;64861;47.546;19.254;2024-01-15T02:14:34;94.03;;;46.97;;
74620;SDS011;64861;47.546;19.254;2024-01-15T02:17:00;90.88;;;46.28;;
74620;SDS011;64861;47.546;19.254;2024-01-15T02:19:27;108.50;;;52.03;;
74620;SDS011;64861;47.546;19.254;2024-01-15T02:21:58;110.82;;;53.08;;
74620;SDS011;64861;47.546;19.254;2024-01-15T02:24:23;115.70;;;53.17;;
74620;SDS011;64861;47.546;19.254;2024-01-15T02:26:50;118.20;;;53.88;;
74620;SDS011;64861;47.546;19.254;2024-01-15T02:29:17;117.82;;;54.13;;
74620;SDS011;64861;47.546;19.254;2024-01-15T02:31:44;117.45;;;56.72;;
74620;SDS011;64861;47.546;19.254;2024-01-15T02:34:09;108.78;;;53.30;;
74620;SDS011;64861;47.546;19.254;2024-01-15T02:36:36;116.25;;;54.90;;
74620;SDS011;64861;47.546;19.254;2024-01-15T02:39:02;109.50;;;52.65;;
74620;SDS011;64861;47.546;19.254;2024-01-15T02:41:28;109.55;;;52.78;;
74620;SDS011;64861;47.546;19.254;2024-01-15T02:43:55;113.43;;;55.22;;
74620;SDS011;64861;47.546;19.254;2024-01-15T02:46:21;121.00;;;56.58;;
74620;SDS011;64861;47.546;19.254;2024-01-15T02:48:46;118.18;;;54.95;;
74620;SDS011;64861;47.546;19.254;2024-01-15T02:51:15;118.57;;;55.80;;
74620;SDS011;64861;47.546;19.254;2024-01-15T02:53:40;127.10;;;57.22;;
74620;SDS011;64861;47.546;19.254;2024-01-15T02:56:06;120.85;;;56.95;;
74620;SDS011;64861;47.546;19.254;2024-01-15T02:58:33;124.53;;;54.85;;
74620;SDS011;64861;47.546;19.254;2024-01-15T03:00:58;131.55;;;58.47;;
74620;SDS011;64861;47.546;19.254;2024-01-15T03:03:24;128.27;;;59.20;;
74620;SDS011;64861;47.546;19.254;2024-01-15T03:05:49;129.55;;;60.03;;
74620;SDS011;64861;47.546;19.254;2024-01-15T03:08:15;136.77;;;59.53;;
74620;SDS011;64861;47.546;19.254;2024-01-15T03:10:40;128.50;;;60.08;;
74620;SDS011;64861;47.546;19.254;2024-01-15T03:13:05;112.60;;;51.20;;
74620;SDS011;64861;47.546;19.254;2024-01-15T03:15:32;126.57;;;58.25;;
74620;SDS011;64861;47.546;19.254;2024-01-15T03:17:59;129.48;;;58.78;;
74620;SDS011;64861;47.546;19.254;2024-01-15T03:20:24;133.90;;;61.33;;
74620;SDS011;64861;47.546;19.254;2024-01-15T03:22:51;128.25;;;59.88;;
74620;SDS011;64861;47.546;19.254;2024-01-15T03:25:17;131.55;;;58.40;;
74620;SDS011;64861;47.546;19.254;2024-01-15T03:27:42;132.50;;;59.40;;
74620;SDS011;64861;47.546;19.254;2024-01-15T03:30:08;128.95;;;57.35;;
74620;SDS011;64861;47.546;19.254;2024-01-15T03:32:33;133.55;;;63.00;;
74620;SDS011;64861;47.546;19.254;2024-01-15T03:34:59;132.48;;;61.28;;
74620;SDS011;64861;47.546;19.254;2024-01-15T03:37:25;141.02;;;63.42;;
74620;SDS011;64861;47.546;19.254;2024-01-15T03:39:50;139.20;;;63.67;;
74620;SDS011;64861;47.546;19.254;2024-01-15T03:42:16;145.48;;;65.18;;
74620;SDS011;64861;47.546;19.254;2024-01-15T03:44:41;135.98;;;62.05;;
74620;SDS011;64861;47.546;19.254;2024-01-15T03:47:07;124.57;;;60.17;;
74620;SDS011;64861;47.546;19.254;2024-01-15T03:49:32;129.50;;;62.10;;
74620;SDS011;64861;47.546;19.254;2024-01-15T03:51:58;129.50;;;60.55;;
74620;SDS011;64861;47.546;19.254;2024-01-15T03:54:24;118.90;;;58.25;;
74620;SDS011;64861;47.546;19.254;2024-01-15T03:56:51;138.27;;;64.32;;
74620;SDS011;64861;47.546;19.254;2024-01-15T03:59:16;130.52;;;61.65;;
74620;SDS011;64861;47.546;19.254;2024-01-15T04:01:47;119.60;;;58.03;;
74620;SDS011;64861;47.546;19.254;2024-01-15T04:04:14;126.25;;;58.85;;
74620;SDS011;64861;47.546;19.254;2024-01-15T04:06:39;137.52;;;67.07;;
74620;SDS011;64861;47.546;19.254;2024-01-15T04:09:06;132.95;;;63.70;;
74620;SDS011;64861;47.546;19.254;2024-01-15T04:11:32;153.02;;;69.07;;
74620;SDS011;64861;47.546;19.254;2024-01-15T04:13:57;142.65;;;69.25;;
74620;SDS011;64861;47.546;19.254;2024-01-15T04:16:23;143.10;;;68.90;;
74620;SDS011;64861;47.546;19.254;2024-01-15T04:18:50;143.55;;;64.93;;
74620;SDS011;64861;47.546;19.254;2024-01-15T04:21:17;131.18;;;64.20;;
74620;SDS011;64861;47.546;19.254;2024-01-15T04:23:44;137.82;;;64.20;;
74620;SDS011;64861;47.546;19.254;2024-01-15T04:26:11;130.95;;;61.17;;
74620;SDS011;64861;47.546;19.254;2024-01-15T04:28:36;128.15;;;58.70;;
74620;SDS011;64861;47.546;19.254;2024-01-15T04:31:02;138.05;;;64.22;;
74620;SDS011;64861;47.546;19.254;2024-01-15T04:33:27;123.13;;;58.40;;
74620;SDS011;64861;47.546;19.254;2024-01-15T04:35:53;133.43;;;62.75;;
74620;SDS011;64861;47.546;19.254;2024-01-15T04:38:18;128.18;;;59.00;;
74620;SDS011;64861;47.546;19.254;2024-01-15T04:40:43;145.10;;;65.28;;
74620;SDS011;64861;47.546;19.254;2024-01-15T04:43:09;127.60;;;61.95;;
74620;SDS011;64861;47.546;19.254;2024-01-15T04:45:34;147.65;;;67.43;;
74620;SDS011;64861;47.546;19.254;2024-01-15T04:48:00;129.65;;;62.10;;
74620;SDS011;64861;47.546;19.254;2024-01-15T04:50:26;141.32;;;67.63;;
74620;SDS011;64861;47.546;19.254;2024-01-15T04:52:52;138.10;;;64.40;;
74620;SDS011;64861;47.546;19.254;2024-01-15T04:55:17;134.10;;;64.47;;
74620;SDS011;64861;47.546;19.254;2024-01-15T04:57:42;128.25;;;60.90;;
74620;SDS011;64861;47.546;19.254;2024-01-15T05:00:09;148.68;;;67.43;;
74620;SDS011;64861;47.546;19.254;2024-01-15T05:02:34;147.25;;;64.30;;
74620;SDS011;64861;47.546;19.254;2024-01-15T05:05:00;133.50;;;61.58;;
74620;SDS011;64861;47.546;19.254;2024-01-15T05:07:25;146.23;;;62.50;;
74620;SDS011;64861;47.546;19.254;2024-01-15T05:09:53;126.75;;;60.78;;
74620;SDS011;64861;47.546;19.254;2024-01-15T05:12:18;133.50;;;61.45;;
74620;SDS011;64861;47.546;19.254;2024-01-15T05:14:44;128.93;;;62.28;;
74620;SDS011;64861;47.546;19.254;2024-01-15T05:17:09;127.78;;;59.00;;
74620;SDS011;64861;47.546;19.254;2024-01-15T05:19:35;137.52;;;61.65;;
74620;SDS011;64861;47.546;19.254;2024-01-15T05:22:00;123.63;;;57.38;;
74620;SDS011;64861;47.546;19.254;2024-01-15T05:24:26;136.55;;;62.92;;
74620;SDS011;64861;47.546;19.254;2024-01-15T05:26:51;158.65;;;75.85;;
74620;SDS011;64861;47.546;19.254;2024-01-15T05:29:17;142.75;;;69.85;;
74620;SDS011;64861;47.546;19.254;2024-01-15T05:31:43;143.95;;;67.32;;
74620;SDS011;64861;47.546;19.254;2024-01-15T05:34:09;139.32;;;62.30;;
74620;SDS011;64861;47.546;19.254;2024-01-15T05:36:35;134.50;;;61.83;;
74620;SDS011;64861;47.546;19.254;2024-01-15T05:39:02;138.43;;;66.32;;
74620;SDS011;64861;47.546;19.254;2024-01-15T05:41:28;142.10;;;65.45;;
74620;SDS011;64861;47.546;19.254;2024-01-15T05:43:53;129.25;;;61.88;;
74620;SDS011;64861;47.546;19.254;2024-01-15T05:46:21;127.25;;;60.50;;
74620;SDS011;64861;47.546;19.254;2024-01-15T05:48:47;130.90;;;64.82;;
74620;SDS011;64861;47.546;19.254;2024-01-15T05:51:13;134.48;;;65.60;;
74620;SDS011;64861;47.546;19.254;2024-01-15T05:53:38;152.43;;;72.45;;
74620;SDS011;64861;47.546;19.254;2024-01-15T05:56:06;135.73;;;62.17;;
74620;SDS011;64861;47.546;19.254;2024-01-15T05:58:33;168.30;;;75.25;;
74620;SDS011;64861;47.546;19.254;2024-01-15T06:00:59;160.60;;;74.45;;
74620;SDS011;64861;47.546;19.254;2024-01-15T06:03:24;191.88;;;84.63;;
74620;SDS011;64861;47.546;19.254;2024-01-15T06:05:51;205.65;;;94.97;;
74620;SDS011;64861;47.546;19.254;2024-01-15T06:08:18;194.07;;;91.32;;
74620;SDS011;64861;47.546;19.254;2024-01-15T06:10:46;182.75;;;86.38;;
74620;SDS011;64861;47.546;19.254;2024-01-15T06:13:16;172.05;;;81.03;;
74620;SDS011;64861;47.546;19.254;2024-01-15T06:15:42;171.20;;;81.07;;
74620;SDS011;64861;47.546;19.254;2024-01-15T06:18:12;168.38;;;79.35;;
74620;SDS011;64861;47.546;19.254;2024-01-15T06:23:04;184.73;;;88.32;;
74620;SDS011;64861;47.546;19.254;2024-01-15T06:25:29;170.95;;;82.95;;
74620;SDS011;64861;47.546;19.254;2024-01-15T06:27:55;180.63;;;81.78;;
74620;SDS011;64861;47.546;19.254;2024-01-15T06:30:20;170.05;;;78.07;;
74620;SDS011;64861;47.546;19.254;2024-01-15T06:32:45;165.43;;;77.20;;
74620;SDS011;64861;47.546;19.254;2024-01-15T06:35:11;163.93;;;77.65;;
74620;SDS011;64861;47.546;19.254;2024-01-15T06:37:36;158.52;;;76.75;;
74620;SDS011;64861;47.546;19.254;2024-01-15T06:40:02;162.48;;;76.95;;
74620;SDS011;64861;47.546;19.254;2024-01-15T06:42:28;155.27;;;71.85;;
74620;SDS011;64861;47.546;19.254;2024-01-15T06:44:54;153.07;;;75.97;;
74620;SDS011;64861;47.546;19.254;2024-01-15T06:47:19;146.75;;;72.35;;
74620;SDS011;64861;47.546;19.254;2024-01-15T06:49:44;163.30;;;73.63;;
74620;SDS011;64861;47.546;19.254;2024-01-15T06:52:10;150.05;;;74.55;;
74620;SDS011;64861;47.546;19.254;2024-01-15T06:54:37;157.50;;;79.00;;
74620;SDS011;64861;47.546;19.254;2024-01-15T06:57:02;154.27;;;72.70;;
74620;SDS011;64861;47.546;19.254;2024-01-15T06:59:28;150.77;;;73.43;;
74620;SDS011;64861;47.546;19.254;2024-01-15T07:01:53;145.50;;;71.10;;
74620;SDS011;64861;47.546;19.254;2024-01-15T07:04:20;156.48;;;74.75;;
74620;SDS011;64861;47.546;19.254;2024-01-15T07:06:45;152.88;;;76.32;;
74620;SDS011;64861;47.546;19.254;2024-01-15T07:09:10;156.02;;;78.43;;
74620;SDS011;64861;47.546;19.254;2024-01-15T07:11:36;153.25;;;72.43;;
74620;SDS011;64861;47.546;19.254;2024-01-15T07:14:02;165.68;;;76.45;;
74620;SDS011;64861;47.546;19.254;2024-01-15T07:16:27;165.02;;;79.97;;
74620;SDS011;64861;47.546;19.254;2024-01-15T07:18:52;177.38;;;85.50;;
74620;SDS011;64861;47.546;19.254;2024-01-15T07:21:18;160.32;;;83.10;;
74620;SDS011;64861;47.546;19.254;2024-01-15T07:23:44;167.68;;;78.70;;
74620;SDS011;64861;47.546;19.254;2024-01-15T07:26:09;166.82;;;83.05;;
74620;SDS011;64861;47.546;19.254;2024-01-15T07:28:35;165.80;;;83.10;;
74620;SDS011;64861;47.546;19.254;2024-01-15T07:31:00;163.25;;;79.07;;
74620;SDS011;64861;47.546;19.254;2024-01-15T07:33:26;160.90;;;77.63;;
74620;SDS011;64861;47.546;19.254;2024-01-15T07:35:53;145.90;;;72.25;;
74620;SDS011;64861;47.546;19.254;2024-01-15T07:38:18;158.55;;;77.95;;
74620;SDS011;64861;47.546;19.254;2024-01-15T07:40:44;170.20;;;85.32;;
74620;SDS011;64861;47.546;19.254;2024-01-15T07:43:14;161.40;;;80.18;;
74620;SDS011;64861;47.546;19.254;2024-01-15T07:45:40;159.57;;;78.10;;
74620;SDS011;64861;47.546;19.254;2024-01-15T07:48:05;164.23;;;81.10;;
74620;SDS011;64861;47.546;19.254;2024-01-15T07:50:31;170.85;;;86.22;;
74620;SDS011;64861;47.546;19.254;2024-01-15T07:52:56;165.50;;;85.45;;
74620;SDS011;64861;47.546;19.254;2024-01-15T07:55:22;159.43;;;82.57;;
74620;SDS011;64861;47.546;19.254;2024-01-15T07:57:47;139.45;;;71.75;;
74620;SDS011;64861;47.546;19.254;2024-01-15T08:00:13;151.57;;;77.05;;
74620;SDS011;64861;47.546;19.254;2024-01-15T08:02:38;140.93;;;70.10;;
74620;SDS011;64861;47.546;19.254;2024-01-15T08:05:04;116.57;;;57.08;;
74620;SDS011;64861;47.546;19.254;2024-01-15T08:07:30;121.03;;;62.28;;
74620;SDS011;64861;47.546;19.254;2024-01-15T08:09:55;89.88;;;45.97;;
74620;SDS011;64861;47.546;19.254;2024-01-15T08:12:22;106.55;;;53.75;;
74620;SDS011;64861;47.546;19.254;2024-01-15T08:14:48;100.78;;;57.00;;
74620;SDS011;64861;47.546;19.254;2024-01-15T08:17:13;85.65;;;43.10;;
74620;SDS011;64861;47.546;19.254;2024-01-15T08:19:38;95.55;;;46.40;;
74620;SDS011;64861;47.546;19.254;2024-01-15T08:22:06;61.15;;;37.67;;
74620;SDS011;64861;47.546;19.254;2024-01-15T08:24:31;65.15;;;37.50;;
74620;SDS011;64861;47.546;19.254;2024-01-15T08:26:57;65.28;;;39.17;;
74620;SDS011;64861;47.546;19.254;2024-01-15T08:29:22;66.35;;;42.00;;
74620;SDS011;64861;47.546;19.254;2024-01-15T08:31:49;54.33;;;34.38;;
74620;SDS011;64861;47.546;19.254;2024-01-15T08:34:15;58.90;;;34.75;;
74620;SDS011;64861;47.546;19.254;2024-01-15T08:36:40;60.72;;;37.22;;
74620;SDS011;64861;47.546;19.254;2024-01-15T08:39:06;58.42;;;32.00;;
74620;SDS011;64861;47.546;19.254;2024-01-15T08:41:32;48.67;;;31.23;;
74620;SDS011;64861;47.546;19.254;2024-01-15T08:53:04;46.15;;;28.23;;
74620;SDS011;64861;47.546;19.254;2024-01-15T08:55:30;44.28;;;27.35;;
74620;SDS011;64861;47.546;19.254;2024-01-15T08:57:56;60.08;;;28.58;;
74620;SDS011;64861;47.546;19.254;2024-01-15T09:00:21;47.17;;;28.15;;
74620;SDS011;64861;47.546;19.254;2024-01-15T09:02:46;58.38;;;32.22;;
74620;SDS011;64861;47.546;19.254;2024-01-15T09:05:12;53.67;;;29.75;;
74620;SDS011;64861;47.546;19.254;2024-01-15T09:07:37;50.58;;;30.10;;
74620;SDS011;64861;47.546;19.254;2024-01-15T09:10:03;47.92;;;27.02;;
74620;SDS011;64861;47.546;19.254;2024-01-15T09:12:28;47.90;;;27.85;;
74620;SDS011;64861;47.546;19.254;2024-01-15T09:14:54;50.60;;;26.10;;
74620;SDS011;64861;47.546;19.254;2024-01-15T09:17:20;49.85;;;26.27;;
74620;SDS011;64861;47.546;19.254;2024-01-15T09:19:48;47.95;;;25.98;;
74620;SDS011;64861;47.546;19.254;2024-01-15T09:22:14;40.40;;;22.90;;
74620;SDS011;64861;47.546;19.254;2024-01-15T09:24:42;42.38;;;24.30;;
74620;SDS011;64861;47.546;19.254;2024-01-15T09:27:07;42.60;;;24.98;;
74620;SDS011;64861;47.546;19.254;2024-01-15T09:29:33;44.20;;;25.05;;
74620;SDS011;64861;47.546;19.254;2024-01-15T09:31:58;41.25;;;21.65;;
74620;SDS011;64861;47.546;19.254;2024-01-15T09:34:24;40.97;;;24.08;;
74620;SDS011;64861;47.546;19.254;2024-01-15T09:36:49;41.70;;;21.40;;
74620;SDS011;64861;47.546;19.254;2024-01-15T09:39:14;40.03;;;19.25;;
74620;SDS011;64861;47.546;19.254;2024-01-15T09:41:40;36.13;;;19.73;;
74620;SDS011;64861;47.546;19.254;2024-01-15T09:44:06;38.58;;;20.00;;
74620;SDS011;64861;47.546;19.254;2024-01-15T09:46:33;35.88;;;18.77;;
74620;SDS011;64861;47.546;19.254;2024-01-15T09:48:59;30.38;;;17.52;;
74620;SDS011;64861;47.546;19.254;2024-01-15T09:51:26;27.88;;;15.25;;
74620;SDS011;64861;47.546;19.254;2024-01-15T09:53:56;26.50;;;15.10;;
74620;SDS011;64861;47.546;19.254;2024-01-15T09:56:22;28.25;;;14.75;;
74620;SDS011;64861;47.546;19.254;2024-01-15T09:58:48;30.55;;;16.08;;
74620;SDS011;64861;47.546;19.254;2024-01-15T10:01:14;28.63;;;15.75;;
74620;SDS011;64861;47.546;19.254;2024-01-15T10:03:42;28.45;;;14.43;;
74620;SDS011;64861;47.546;19.254;2024-01-15T10:06:07;25.88;;;13.80;;
74620;SDS011;64861;47.546;19.254;2024-01-15T10:08:34;24.77;;;14.00;;
74620;SDS011;64861;47.546;19.254;2024-01-15T10:11:02;31.25;;;16.60;;
74620;SDS011;64861;47.546;19.254;2024-01-15T10:13:30;25.65;;;13.43;;
74620;SDS011;64861;47.546;19.254;2024-01-15T10:15:55;27.08;;;14.45;;
74620;SDS011;64861;47.546;19.254;2024-01-15T10:18:21;33.78;;;13.68;;
74620;SDS011;64861;47.546;19.254;2024-01-15T10:20:46;23.38;;;10.18;;
74620;SDS011;64861;47.546;19.254;2024-01-15T10:23:13;32.13;;;15.40;;
74620;SDS011;64861;47.546;19.254;2024-01-15T10:25:41;20.73;;;12.25;;
74620;SDS011;64861;47.546;19.254;2024-01-15T10:28:07;56.22;;;28.08;;
74620;SDS011;64861;47.546;19.254;2024-01-15T10:30:33;26.83;;;12.88;;
74620;SDS011;64861;47.546;19.254;2024-01-15T10:32:59;22.55;;;12.50;;
74620;SDS011;64861;47.546;19.254;2024-01-15T10:35:44;22.40;;;11.50;;
74620;SDS011;64861;47.546;19.254;2024-01-15T10:38:09;21.45;;;11.57;;
74620;SDS011;64861;47.546;19.254;2024-01-15T10:40:35;24.00;;;12.65;;
74620;SDS011;64861;47.546;19.254;2024-01-15T10:43:00;26.42;;;12.73;;
74620;SDS011;64861;47.546;19.254;2024-01-15T10:45:26;23.13;;;12.00;;
74620;SDS011;64861;47.546;19.254;2024-01-15T10:47:51;28.75;;;12.38;;
74620;SDS011;64861;47.546;19.254;2024-01-15T10:50:18;63.70;;;38.00;;
74620;SDS011;64861;47.546;19.254;2024-01-15T10:52:44;27.13;;;17.02;;
74620;SDS011;64861;47.546;19.254;2024-01-15T10:55:10;22.33;;;12.18;;
74620;SDS011;64861;47.546;19.254;2024-01-15T10:57:39;17.63;;;9.98;;
74620;SDS011;64861;47.546;19.254;2024-01-15T11:00:06;20.58;;;11.15;;
74620;SDS011;64861;47.546;19.254;2024-01-15T11:02:36;21.70;;;11.20;;
74620;SDS011;64861;47.546;19.254;2024-01-15T11:05:02;24.67;;;12.18;;
74620;SDS011;64861;47.546;19.254;2024-01-15T11:07:29;27.08;;;11.80;;
74620;SDS011;64861;47.546;19.254;2024-01-15T11:09:55;19.45;;;10.70;;
74620;SDS011;64861;47.546;19.254;2024-01-15T11:12:23;22.08;;;10.70;;
74620;SDS011;64861;47.546;19.254;2024-01-15T11:14:49;19.63;;;9.88;;
74620;SDS011;64861;47.546;19.254;2024-01-15T11:17:16;20.02;;;9.65;;
74620;SDS011;64861;47.546;19.254;2024-01-15T11:19:44;22.35;;;10.73;;
74620;SDS011;64861;47.546;19.254;2024-01-15T11:24:55;25.27;;;12.98;;
74620;SDS011;64861;47.546;19.254;2024-01-15T11:27:43;19.77;;;11.05;;
74620;SDS011;64861;47.546;19.254;2024-01-15T11:30:09;16.50;;;8.85;;
74620;SDS011;64861;47.546;19.254;2024-01-15T11:32:36;16.30;;;9.05;;
74620;SDS011;64861;47.546;19.254;2024-01-15T11:35:02;16.90;;;8.95;;
74620;SDS011;64861;47.546;19.254;2024-01-15T11:40:17;19.75;;;10.65;;
74620;SDS011;64861;47.546;19.254;2024-01-15T11:42:44;18.42;;;10.82;;
74620;SDS011;64861;47.546;19.254;2024-01-15T11:45:10;17.20;;;9.70;;
74620;SDS011;64861;47.546;19.254;2024-01-15T11:50:19;17.83;;;9.95;;
74620;SDS011;64861;47.546;19.254;2024-01-15T11:52:49;19.40;;;9.75;;
74620;SDS011;64861;47.546;19.254;2024-01-15T11:55:27;20.73;;;10.27;;
74620;SDS011;64861;47.546;19.254;2024-01-15T11:58:02;23.00;;;9.48;;
74620;SDS011;64861;47.546;19.254;2024-01-15T12:00:33;18.52;;;8.80;;
74620;SDS011;64861;47.546;19.254;2024-01-15T12:02:59;20.63;;;8.60;;
74620;SDS011;64861;47.546;19.254;2024-01-15T12:05:27;18.35;;;9.35;;
74620;SDS011;64861;47.546;19.254;2024-01-15T12:07:52;18.98;;;9.77;;
74620;SDS011;64861;47.546;19.254;2024-01-15T12:10:18;21.63;;;9.15;;
74620;SDS011;64861;47.546;19.254;2024-01-15T12:15:17;20.67;;;9.82;;
74620;SDS011;64861;47.546;19.254;2024-01-15T12:17:42;34.25;;;16.08;;
74620;SDS011;64861;47.546;19.254;2024-01-15T12:20:08;19.17;;;9.23;;
74620;SDS011;64861;47.546;19.254;2024-01-15T12:22:33;24.10;;;10.63;;
74620;SDS011;64861;47.546;19.254;2024-01-15T12:24:59;26.65;;;9.82;;
74620;SDS011;64861;47.546;19.254;2024-01-15T12:27:25;22.63;;;9.23;;
74620;SDS011;64861;47.546;19.254;2024-01-15T12:29:52;18.38;;;8.15;;
74620;SDS011;64861;47.546;19.254;2024-01-15T12:32:18;22.75;;;8.73;;
74620;SDS011;64861;47.546;19.254;2024-01-15T12:34:43;24.77;;;10.23;;
74620;SDS011;64861;47.546;19.254;2024-01-15T12:37:09;44.08;;;20.17;;
74620;SDS011;64861;47.546;19.254;2024-01-15T12:39:36;24.52;;;10.30;;
74620;SDS011;64861;47.546;19.254;2024-01-15T12:42:01;34.13;;;13.15;;
74620;SDS011;64861;47.546;19.254;2024-01-15T12:44:28;20.60;;;8.32;;
74620;SDS011;64861;47.546;19.254;2024-01-15T12:46:54;20.63;;;9.10;;
74620;SDS011;64861;47.546;19.254;2024-01-15T12:49:20;24.70;;;11.13;;
74620;SDS011;64861;47.546;19.254;2024-01-15T12:51:53;19.90;;;8.70;;
74620;SDS011;64861;47.546;19.254;2024-01-15T12:54:19;21.90;;;8.48;;
74620;SDS011;64861;47.546;19.254;2024-01-15T12:56:45;12.65;;;6.45;;
74620;SDS011;64861;47.546;19.254;2024-01-15T12:59:10;11.73;;;6.20;;
74620;SDS011;64861;47.546;19.254;2024-01-15T13:01:36;13.40;;;6.90;;
74620;SDS011;64861;47.546;19.254;2024-01-15T13:04:01;23.98;;;13.52;;
74620;SDS011;64861;47.546;19.254;2024-01-15T13:06:27;16.35;;;8.32;;
74620;SDS011;64861;47.546;19.254;2024-01-15T13:08:52;14.32;;;6.93;;
74620;SDS011;64861;47.546;19.254;2024-01-15T13:11:18;12.43;;;6.18;;
74620;SDS011;64861;47.546;19.254;2024-01-15T13:13:43;16.83;;;6.97;;
74620;SDS011;64861;47.546;19.254;2024-01-15T13:16:09;18.60;;;9.27;;
74620;SDS011;64861;47.546;19.254;2024-01-15T13:18:34;14.50;;;7.50;;
74620;SDS011;64861;47.546;19.254;2024-01-15T13:20:59;16.15;;;7.75;;
74620;SDS011;64861;47.546;19.254;2024-01-15T13:23:25;14.98;;;6.82;;
74620;SDS011;64861;47.546;19.254;2024-01-15T13:25:50;34.22;;;16.52;;
74620;SDS011;64861;47.546;19.254;2024-01-15T13:28:16;35.75;;;20.23;;
74620;SDS011;64861;47.546;19.254;2024-01-15T13:30:41;16.10;;;7.57;;
74620;SDS011;64861;47.546;19.254;2024-01-15T13:33:07;17.55;;;7.38;;
74620;SDS011;64861;47.546;19.254;2024-01-15T13:35:33;20.65;;;9.07;;
74620;SDS011;64861;47.546;19.254;2024-01-15T13:38:01;18.42;;;8.07;;
74620;SDS011;64861;47.546;19.254;2024-01-15T13:40:26;15.35;;;7.35;;
74620;SDS011;64861;47.546;19.254;2024-01-15T13:42:52;15.25;;;7.72;;
74620;SDS011;64861;47.546;19.254;2024-01-15T13:45:19;24.65;;;8.60;;
74620;SDS011;64861;47.546;19.254;2024-01-15T13:47:45;20.92;;;7.88;;
74620;SDS011;64861;47.546;19.254;2024-01-15T13:50:11;37.67;;;13.82;;
74620;SDS011;64861;47.546;19.254;2024-01-15T13:52:37;23.50;;;9.35;;
74620;SDS011;64861;47.546;19.254;2024-01-15T13:55:02;33.30;;;11.70;;
74620;SDS011;64861;47.546;19.254;2024-01-15T13:57:28;24.95;;;12.05;;
74620;SDS011;64861;47.546;19.254;2024-01-15T13:59:53;23.33;;;9.90;;
74620;SDS011;64861;47.546;19.254;2024-01-15T14:02:20;14.32;;;8.07;;
74620;SDS011;64861;47.546;19.254;2024-01-15T14:04:45;19.17;;;8.05;;
74620;SDS011;64861;47.546;19.254;2024-01-15T14:07:11;14.88;;;8.43;;
74620;SDS011;64861;47.546;19.254;2024-01-15T14:09:36;16.17;;;7.18;;
74620;SDS011;64861;47.546;19.254;2024-01-15T14:12:02;26.17;;;10.70;;
74620;SDS011;64861;47.546;19.254;2024-01-15T14:14:28;19.30;;;9.68;;
74620;SDS011;64861;47.546;19.254;2024-01-15T14:16:53;20.98;;;10.10;;
74620;SDS011;64861;47.546;19.254;2024-01-15T14:19:19;27.63;;;12.05;;